createdAt,value
2017-09-27T00:00:18.615Z,1018.3
2017-09-27T00:01:20.035Z,1018.3
2017-09-27T00:02:21.433Z,1018.3
2017-09-27T00:03:22.915Z,1018.4
2017-09-27T00:04:24.322Z,1018.3
2017-09-27T00:05:25.724Z,1018.3
2017-09-27T00:06:27.235Z,1018.3
2017-09-27T00:07:28.638Z,1018.3
2017-09-27T00:08:30.037Z,1018.3
2017-09-27T00:09:31.454Z,1018.3
2017-09-27T00:10:32.859Z,1018.3
2017-09-27T00:11:34.360Z,1018.3
2017-09-27T00:12:35.764Z,1018.2
2017-09-27T00:13:37.213Z,1018.2
2017-09-27T00:14:38.619Z,1018.2
2017-09-27T00:15:40.019Z,1018.2
2017-09-27T00:16:41.432Z,1018.3
2017-09-27T00:17:42.837Z,1018.2
2017-09-27T00:18:44.238Z,1018.2
2017-09-27T00:19:45.765Z,1018.2
2017-09-27T00:20:47.169Z,1018.2
2017-09-27T00:21:48.577Z,1018.2
2017-09-27T00:22:50.078Z,1018.2
2017-09-27T00:23:51.483Z,1018.2
2017-09-27T00:24:52.891Z,1018.2
2017-09-27T00:25:54.399Z,1018.2
2017-09-27T00:26:55.805Z,1018.2
2017-09-27T00:27:57.210Z,1018.3
2017-09-27T00:28:58.716Z,1018.3
2017-09-27T00:30:00.118Z,1018.2
2017-09-27T00:31:01.520Z,1018.2
2017-09-27T00:32:03.039Z,1018.2
2017-09-27T00:33:04.442Z,1018.2
2017-09-27T00:34:05.844Z,1018.1
2017-09-27T00:35:07.387Z,1018.1
2017-09-27T00:36:08.789Z,1018.1
2017-09-27T00:37:10.192Z,1018.1
2017-09-27T00:38:11.681Z,1018.1
2017-09-27T00:39:13.081Z,1018.1
2017-09-27T00:40:14.489Z,1018.1
2017-09-27T00:41:16.000Z,1018.1
2017-09-27T00:42:17.399Z,1018.1
2017-09-27T00:43:18.804Z,1018.1
2017-09-27T00:44:20.221Z,1018.1
2017-09-27T00:45:21.620Z,1018.1
2017-09-27T00:46:23.042Z,1018.1
2017-09-27T00:47:24.558Z,1018.1
2017-09-27T00:48:25.961Z,1018.1
2017-09-27T00:49:27.362Z,1018.0
2017-09-27T00:50:28.889Z,1018.1
2017-09-27T00:51:30.324Z,1018.1
2017-09-27T00:52:31.744Z,1018.1
2017-09-27T00:53:33.144Z,1018.0
2017-09-27T00:54:34.586Z,1018.0
2017-09-27T00:55:36.066Z,1018.0
2017-09-27T00:56:37.466Z,1018.0
2017-09-27T00:57:38.864Z,1018.0
2017-09-27T00:58:40.283Z,1018.0
2017-09-27T00:59:41.790Z,1017.9
2017-09-27T01:00:43.208Z,1018.0
2017-09-27T01:01:44.606Z,1018.0
2017-09-27T01:02:46.008Z,1018.0
2017-09-27T01:03:47.411Z,1018.0
2017-09-27T01:04:48.941Z,1018.0
2017-09-27T01:05:50.344Z,1018.0
2017-09-27T01:06:51.806Z,1018.0
2017-09-27T01:07:53.223Z,1017.9
2017-09-27T01:08:54.693Z,1018.0
2017-09-27T01:09:56.132Z,1017.9
2017-09-27T01:10:57.575Z,1017.9
2017-09-27T01:11:58.973Z,1017.9
2017-09-27T01:13:00.467Z,1017.9
2017-09-27T01:14:01.901Z,1017.9
2017-09-27T01:15:03.309Z,1017.9
2017-09-27T01:16:04.799Z,1017.9
2017-09-27T01:17:06.202Z,1017.9
2017-09-27T01:18:07.611Z,1017.9
2017-09-27T01:19:09.089Z,1017.9
2017-09-27T01:20:10.496Z,1017.9
2017-09-27T01:21:11.898Z,1017.8
2017-09-27T01:22:13.410Z,1017.8
2017-09-27T01:23:14.818Z,1017.8
2017-09-27T01:24:16.237Z,1017.8
2017-09-27T01:25:17.733Z,1017.8
2017-09-27T01:26:19.132Z,1017.7
2017-09-27T01:27:20.613Z,1017.8
2017-09-27T01:28:22.014Z,1017.8
2017-09-27T01:29:23.497Z,1017.7
2017-09-27T01:30:24.900Z,1017.7
2017-09-27T01:31:26.375Z,1017.7
2017-09-27T01:32:27.777Z,1017.7
2017-09-27T01:33:29.278Z,1017.7
2017-09-27T01:34:30.702Z,1017.6
2017-09-27T01:35:32.144Z,1017.7
2017-09-27T01:36:33.549Z,1017.7
2017-09-27T01:37:35.017Z,1017.7
2017-09-27T01:38:36.421Z,1017.7
2017-09-27T01:39:37.897Z,1017.7
2017-09-27T01:40:39.309Z,1017.7
2017-09-27T01:41:40.777Z,1017.6
2017-09-27T01:42:42.205Z,1017.6
2017-09-27T01:43:43.660Z,1017.7
2017-09-27T01:44:45.066Z,1017.6
2017-09-27T01:45:46.467Z,1017.7
2017-09-27T01:46:47.982Z,1017.7
2017-09-27T01:47:49.383Z,1017.6
2017-09-27T01:48:50.784Z,1017.6
2017-09-27T01:49:52.199Z,1017.6
2017-09-27T01:50:53.597Z,1017.5
2017-09-27T01:51:55.000Z,1017.5
2017-09-27T01:52:56.419Z,1017.5
2017-09-27T01:53:57.819Z,1017.6
2017-09-27T01:54:59.298Z,1017.6
2017-09-27T01:56:00.697Z,1017.5
2017-09-27T01:57:02.098Z,1017.6
2017-09-27T01:58:03.517Z,1017.5
2017-09-27T01:59:04.920Z,1017.5
2017-09-27T02:00:06.328Z,1017.5
2017-09-27T02:01:07.836Z,1017.5
2017-09-27T02:02:09.239Z,1017.5
2017-09-27T02:03:10.718Z,1017.5
2017-09-27T02:04:12.121Z,1017.5
2017-09-27T02:05:13.599Z,1017.5
2017-09-27T02:06:15.000Z,1017.5
2017-09-27T02:07:16.481Z,1017.5
2017-09-27T02:08:17.885Z,1017.5
2017-09-27T02:09:19.378Z,1017.5
2017-09-27T02:10:20.820Z,1017.5
2017-09-27T02:11:22.255Z,1017.4
2017-09-27T02:12:23.665Z,1017.4
2017-09-27T02:13:25.153Z,1017.4
2017-09-27T02:14:26.550Z,1017.5
2017-09-27T02:15:28.016Z,1017.4
2017-09-27T02:16:29.432Z,1017.4
2017-09-27T02:17:30.821Z,1017.4
2017-09-27T02:18:32.322Z,1017.4
2017-09-27T02:19:33.728Z,1017.4
2017-09-27T02:20:35.128Z,1017.4
2017-09-27T02:21:36.643Z,1017.5
2017-09-27T02:22:38.047Z,1017.4
2017-09-27T02:23:39.524Z,1017.3
2017-09-27T02:24:40.927Z,1017.4
2017-09-27T02:25:42.334Z,1017.4
2017-09-27T02:26:43.859Z,1017.4
2017-09-27T02:27:45.261Z,1017.4
2017-09-27T02:28:46.666Z,1017.4
2017-09-27T02:29:48.166Z,1017.3
2017-09-27T02:30:49.572Z,1017.3
2017-09-27T02:31:50.978Z,1017.4
2017-09-27T02:32:52.490Z,1017.3
2017-09-27T02:33:53.899Z,1017.4
2017-09-27T02:34:55.369Z,1017.4
2017-09-27T02:35:56.771Z,1017.4
2017-09-27T02:36:58.180Z,1017.4
2017-09-27T02:37:59.688Z,1017.3
2017-09-27T02:39:01.093Z,1017.4
2017-09-27T02:40:02.495Z,1017.4
2017-09-27T02:41:03.910Z,1017.3
2017-09-27T02:42:05.315Z,1017.4
2017-09-27T02:43:06.714Z,1017.3
2017-09-27T02:44:08.129Z,1017.4
2017-09-27T02:45:09.530Z,1017.3
2017-09-27T02:46:10.948Z,1017.4
2017-09-27T02:47:12.455Z,1017.4
2017-09-27T02:48:13.856Z,1017.4
2017-09-27T02:49:15.263Z,1017.4
2017-09-27T02:50:16.769Z,1017.4
2017-09-27T02:51:18.170Z,1017.4
2017-09-27T02:52:19.579Z,1017.4
2017-09-27T02:53:21.102Z,1017.5
2017-09-27T02:54:22.507Z,1017.4
2017-09-27T02:55:23.973Z,1017.4
2017-09-27T02:56:25.375Z,1017.5
2017-09-27T02:57:26.779Z,1017.5
2017-09-27T02:58:28.294Z,1017.4
2017-09-27T02:59:29.714Z,1017.5
2017-09-27T03:00:31.128Z,1017.5
2017-09-27T03:01:32.613Z,1017.5
2017-09-27T03:02:34.016Z,1017.4
2017-09-27T03:03:35.432Z,1017.4
2017-09-27T03:04:36.935Z,1017.4
2017-09-27T03:05:38.337Z,1017.4
2017-09-27T03:06:39.737Z,1017.4
2017-09-27T03:07:41.153Z,1017.4
2017-09-27T03:08:42.587Z,1017.4
2017-09-27T03:09:43.968Z,1017.4
2017-09-27T03:10:45.479Z,1017.4
2017-09-27T03:11:46.881Z,1017.4
2017-09-27T03:12:48.281Z,1017.4
2017-09-27T03:13:49.800Z,1017.4
2017-09-27T03:14:51.202Z,1017.4
2017-09-27T03:15:52.686Z,1017.4
2017-09-27T03:16:54.086Z,1017.4
2017-09-27T03:17:55.569Z,1017.4
2017-09-27T03:18:56.975Z,1017.4
2017-09-27T03:19:58.444Z,1017.4
2017-09-27T03:20:59.845Z,1017.5
2017-09-27T03:22:01.318Z,1017.4
2017-09-27T03:23:02.723Z,1017.4
2017-09-27T03:24:04.206Z,1017.4
2017-09-27T03:25:05.609Z,1017.4
2017-09-27T03:26:07.082Z,1017.4
2017-09-27T03:27:08.489Z,1017.4
2017-09-27T03:28:09.887Z,1017.4
2017-09-27T03:29:11.402Z,1017.4
2017-09-27T03:30:12.814Z,1017.4
2017-09-27T03:31:14.238Z,1017.4
2017-09-27T03:32:15.726Z,1017.4
2017-09-27T03:33:17.124Z,1017.3
2017-09-27T03:34:18.523Z,1017.4
2017-09-27T03:35:19.942Z,1017.4
2017-09-27T03:36:21.349Z,1017.3
2017-09-27T03:37:22.746Z,1017.2
2017-09-27T03:38:24.161Z,1017.3
2017-09-27T03:39:25.572Z,1017.3
2017-09-27T03:40:27.041Z,1017.3
2017-09-27T03:41:28.439Z,1017.2
2017-09-27T03:42:29.921Z,1017.2
2017-09-27T03:43:31.323Z,1017.1
2017-09-27T03:44:32.803Z,1017.2
2017-09-27T03:45:34.202Z,1017.1
2017-09-27T03:46:35.696Z,1017.2
2017-09-27T03:47:37.097Z,1017.1
2017-09-27T03:48:38.499Z,1017.1
2017-09-27T03:49:40.016Z,1017.1
2017-09-27T03:50:41.408Z,1017.1
2017-09-27T03:51:42.834Z,1017.1
2017-09-27T03:52:44.361Z,1017.0
2017-09-27T03:53:45.775Z,1017.0
2017-09-27T03:54:47.176Z,1017.0
2017-09-27T03:55:48.644Z,1016.9
2017-09-27T03:56:50.045Z,1017.0
2017-09-27T03:57:51.447Z,1016.9
2017-09-27T03:58:52.864Z,1016.9
2017-09-27T03:59:54.264Z,1016.9
2017-09-27T04:00:55.743Z,1016.8
2017-09-27T04:01:57.148Z,1016.8
2017-09-27T04:02:58.627Z,1016.8
2017-09-27T04:04:00.028Z,1016.8
2017-09-27T04:05:01.506Z,1016.7
2017-09-27T04:06:02.908Z,1016.7
2017-09-27T04:07:04.492Z,1016.6
2017-09-27T04:08:05.902Z,1016.7
2017-09-27T04:09:07.369Z,1016.6
2017-09-27T04:10:08.771Z,1016.6
2017-09-27T04:11:10.249Z,1016.6
2017-09-27T04:12:11.654Z,1016.5
2017-09-27T04:13:13.057Z,1016.5
2017-09-27T04:14:14.575Z,1016.4
2017-09-27T04:15:15.978Z,1016.4
2017-09-27T04:16:17.391Z,1016.4
2017-09-27T04:17:18.894Z,1016.4
2017-09-27T04:18:20.307Z,1016.3
2017-09-27T04:19:21.729Z,1016.2
2017-09-27T04:20:23.245Z,1016.2
2017-09-27T04:21:24.675Z,1016.2
2017-09-27T04:22:26.081Z,1016.1
2017-09-27T04:23:27.532Z,1016.1
2017-09-27T04:24:28.934Z,1016.0
2017-09-27T04:25:30.517Z,1016.0
2017-09-27T04:26:31.935Z,1016.0
2017-09-27T04:27:33.509Z,1016.0
2017-09-27T04:28:34.910Z,1016.0
2017-09-27T04:29:36.378Z,1016.0
2017-09-27T04:30:37.783Z,1016.0
2017-09-27T04:31:39.265Z,1016.0
2017-09-27T04:32:40.663Z,1015.9
2017-09-27T04:33:42.155Z,1015.8
2017-09-27T04:34:43.559Z,1015.9
2017-09-27T04:35:45.027Z,1015.8
2017-09-27T04:36:46.423Z,1015.8
2017-09-27T04:37:47.902Z,1015.7
2017-09-27T04:38:49.304Z,1015.7
2017-09-27T04:39:50.783Z,1015.7
2017-09-27T04:40:52.189Z,1015.7
2017-09-27T04:41:53.665Z,1015.6
2017-09-27T04:42:55.077Z,1015.6
2017-09-27T04:43:56.548Z,1015.6
2017-09-27T04:44:57.953Z,1015.5
2017-09-27T04:45:59.426Z,1015.5
2017-09-27T04:47:00.829Z,1015.5
2017-09-27T04:48:02.230Z,1015.5
2017-09-27T04:49:03.745Z,1015.4
2017-09-27T04:50:05.168Z,1015.4
2017-09-27T04:51:06.569Z,1015.4
2017-09-27T04:52:08.072Z,1015.3
2017-09-27T04:53:09.472Z,1015.3
2017-09-27T04:54:10.870Z,1015.3
2017-09-27T04:55:12.421Z,1015.3
2017-09-27T04:56:13.964Z,1015.3
2017-09-27T04:57:15.374Z,1015.3
2017-09-27T04:58:16.780Z,1015.3
2017-09-27T04:59:18.354Z,1015.3
2017-09-27T05:00:19.760Z,1015.3
2017-09-27T05:01:21.248Z,1015.3
2017-09-27T05:02:22.653Z,1015.3
2017-09-27T05:03:24.153Z,1015.3
2017-09-27T05:04:25.556Z,1015.2
2017-09-27T05:05:27.024Z,1015.2
2017-09-27T05:06:28.436Z,1015.2
2017-09-27T05:07:29.906Z,1015.2
2017-09-27T05:08:31.305Z,1015.2
2017-09-27T05:09:32.759Z,1015.2
2017-09-27T05:10:34.166Z,1015.2
2017-09-27T05:11:35.644Z,1015.2
2017-09-27T05:12:37.081Z,1015.1
2017-09-27T05:13:38.521Z,1015.1
2017-09-27T05:14:39.928Z,1015.1
2017-09-27T05:15:41.400Z,1015.1
2017-09-27T05:16:42.805Z,1015.1
2017-09-27T05:17:44.283Z,1015.2
2017-09-27T05:18:45.691Z,1015.2
2017-09-27T05:19:47.092Z,1015.2
2017-09-27T05:20:48.707Z,1015.2
2017-09-27T05:21:50.111Z,1015.2
2017-09-27T05:22:51.510Z,1015.3
2017-09-27T05:23:53.264Z,1015.3
2017-09-27T05:24:54.662Z,1015.4
2017-09-27T05:25:56.317Z,1015.3
2017-09-27T05:26:57.722Z,1015.3
2017-09-27T05:27:59.406Z,1015.3
2017-09-27T05:29:00.820Z,1015.3
2017-09-27T05:30:02.220Z,1015.4
2017-09-27T05:31:03.930Z,1015.3
2017-09-27T05:32:05.333Z,1015.4
2017-09-27T05:33:06.734Z,1015.4
2017-09-27T05:34:08.456Z,1015.4
2017-09-27T05:35:09.867Z,1015.4
2017-09-27T05:36:11.542Z,1015.4
2017-09-27T05:37:12.947Z,1015.4
2017-09-27T05:38:14.663Z,1015.4
2017-09-27T05:39:16.070Z,1015.4
2017-09-27T05:40:17.726Z,1015.4
2017-09-27T05:41:19.122Z,1015.4
2017-09-27T05:42:20.800Z,1015.5
2017-09-27T05:43:22.249Z,1015.4
2017-09-27T05:44:23.881Z,1015.5
2017-09-27T05:45:25.293Z,1015.5
2017-09-27T05:46:26.970Z,1015.4
2017-09-27T05:47:28.375Z,1015.4
2017-09-27T05:48:30.066Z,1015.5
2017-09-27T05:49:31.473Z,1015.5
2017-09-27T05:50:33.175Z,1015.5
2017-09-27T05:51:34.576Z,1015.5
2017-09-27T05:52:36.228Z,1015.6
2017-09-27T05:53:37.631Z,1015.7
2017-09-27T05:54:39.038Z,1015.8
2017-09-27T05:55:40.755Z,1015.8
2017-09-27T05:56:42.159Z,1015.9
2017-09-27T05:57:43.564Z,1016.0
2017-09-27T05:58:45.285Z,1016.1
2017-09-27T05:59:46.708Z,1016.2
2017-09-27T06:00:48.363Z,1016.3
2017-09-27T06:01:49.782Z,1016.4
2017-09-27T06:02:51.450Z,1016.5
2017-09-27T06:03:52.858Z,1016.6
2017-09-27T06:04:54.536Z,1016.6
2017-09-27T06:05:55.940Z,1016.7
2017-09-27T06:06:57.621Z,1016.8
2017-09-27T06:07:59.025Z,1016.9
2017-09-27T06:09:00.430Z,1017.0
2017-09-27T06:10:02.247Z,1017.1
2017-09-27T06:11:03.652Z,1017.1
2017-09-27T06:12:05.054Z,1017.2
2017-09-27T06:13:06.683Z,1017.3
2017-09-27T06:14:08.092Z,1017.3
2017-09-27T06:15:09.511Z,1017.4
2017-09-27T06:16:11.219Z,1017.5
2017-09-27T06:17:12.624Z,1017.6
2017-09-27T06:18:14.082Z,1017.6
2017-09-27T06:19:15.524Z,1017.6
2017-09-27T06:20:16.928Z,1017.7
2017-09-27T06:21:18.608Z,1017.8
2017-09-27T06:22:20.017Z,1017.8
2017-09-27T06:23:21.435Z,1017.9
2017-09-27T06:24:23.135Z,1017.9
2017-09-27T06:25:24.546Z,1018.0
2017-09-27T06:26:25.950Z,1018.0
2017-09-27T06:27:27.662Z,1018.1
2017-09-27T06:28:29.066Z,1018.1
2017-09-27T06:29:30.477Z,1018.2
2017-09-27T06:30:32.185Z,1018.3
2017-09-27T06:31:33.591Z,1018.5
2017-09-27T06:32:34.996Z,1018.5
2017-09-27T06:33:36.742Z,1018.6
2017-09-27T06:34:38.121Z,1018.7
2017-09-27T06:35:39.530Z,1018.8
2017-09-27T06:36:41.033Z,1018.8
2017-09-27T06:37:42.469Z,1018.9
2017-09-27T06:38:44.120Z,1019.0
2017-09-27T06:39:45.541Z,1019.1
2017-09-27T06:40:46.948Z,1019.1
2017-09-27T06:41:48.690Z,1019.3
2017-09-27T06:42:50.044Z,1019.4
2017-09-27T06:43:51.475Z,1019.5
2017-09-27T06:44:53.172Z,1019.7
2017-09-27T06:45:54.578Z,1019.7
2017-09-27T06:46:56.251Z,1019.9
2017-09-27T06:47:57.655Z,1020.0
2017-09-27T06:48:59.339Z,1020.1
2017-09-27T06:50:00.744Z,1020.3
2017-09-27T06:51:02.437Z,1020.5
2017-09-27T06:52:03.844Z,1020.6
2017-09-27T06:53:05.510Z,1020.7
2017-09-27T06:54:06.926Z,1020.9
2017-09-27T06:55:08.596Z,1021.0
2017-09-27T06:56:10.003Z,1021.3
2017-09-27T06:57:11.683Z,1021.5
2017-09-27T06:58:13.096Z,1021.6
2017-09-27T06:59:14.766Z,1021.9
2017-09-27T07:00:16.177Z,1022.0
2017-09-27T07:01:17.855Z,1022.2
2017-09-27T07:02:19.272Z,1022.4
2017-09-27T07:03:20.941Z,1022.6
2017-09-27T07:04:22.347Z,1022.9
2017-09-27T07:05:24.025Z,1023.1
2017-09-27T07:06:25.432Z,1023.4
2017-09-27T07:07:27.113Z,1023.6
2017-09-27T07:08:28.523Z,1023.7
2017-09-27T07:09:30.251Z,1024.0
2017-09-27T07:10:31.687Z,1024.2
2017-09-27T07:11:33.181Z,1024.3
2017-09-27T07:12:34.937Z,1024.5
2017-09-27T07:13:36.368Z,1024.6
2017-09-27T07:14:37.773Z,1024.7
2017-09-27T07:15:39.260Z,1024.9
2017-09-27T07:16:40.661Z,1024.9
2017-09-27T07:17:42.130Z,1025.1
2017-09-27T07:18:43.532Z,1025.2
2017-09-27T07:19:45.013Z,1025.4
2017-09-27T07:20:46.467Z,1025.5
2017-09-27T07:21:47.851Z,1025.6
2017-09-27T07:22:49.333Z,1025.7
2017-09-27T07:23:50.736Z,1026.0
2017-09-27T07:24:52.143Z,1026.2
2017-09-27T07:25:53.649Z,1026.3
2017-09-27T07:26:55.058Z,1026.5
2017-09-27T07:27:56.535Z,1026.6
2017-09-27T07:28:57.939Z,1026.7
2017-09-27T07:29:59.415Z,1026.7
2017-09-27T07:31:00.823Z,1026.8
2017-09-27T07:32:02.231Z,1026.9
2017-09-27T07:33:03.733Z,1026.9
2017-09-27T07:34:05.141Z,1027.0
2017-09-27T07:35:06.549Z,1027.0
2017-09-27T07:36:08.054Z,1027.1
2017-09-27T07:37:09.462Z,1027.2
2017-09-27T07:38:10.869Z,1027.2
2017-09-27T07:39:12.373Z,1027.4
2017-09-27T07:40:13.779Z,1027.4
2017-09-27T07:41:15.186Z,1027.4
2017-09-27T07:42:16.695Z,1027.3
2017-09-27T07:43:18.106Z,1027.3
2017-09-27T07:44:19.522Z,1027.2
2017-09-27T07:45:21.019Z,1027.2
2017-09-27T07:46:22.426Z,1027.1
2017-09-27T07:47:23.898Z,1027.1
2017-09-27T07:48:25.304Z,1027.0
2017-09-27T07:49:26.780Z,1027.0
2017-09-27T07:50:28.186Z,1027.0
2017-09-27T07:51:29.664Z,1027.0
2017-09-27T07:52:31.069Z,1026.9
2017-09-27T07:53:32.543Z,1026.9
2017-09-27T07:54:33.948Z,1026.9
2017-09-27T07:55:35.437Z,1026.9
2017-09-27T07:56:36.845Z,1026.8
2017-09-27T07:57:38.303Z,1026.8
2017-09-27T07:58:39.723Z,1026.8
2017-09-27T07:59:41.183Z,1026.9
2017-09-27T08:00:42.587Z,1026.7
2017-09-27T08:01:43.995Z,1026.7
2017-09-27T08:02:45.505Z,1026.7
2017-09-27T08:03:46.920Z,1026.7
2017-09-27T08:04:48.328Z,1026.7
2017-09-27T08:05:49.824Z,1026.7
2017-09-27T08:06:51.231Z,1026.7
2017-09-27T08:07:52.635Z,1026.7
2017-09-27T08:08:54.145Z,1026.6
2017-09-27T08:09:55.554Z,1026.7
2017-09-27T08:10:57.363Z,1026.7
2017-09-27T08:11:58.879Z,1026.5
2017-09-27T08:13:00.288Z,1026.6
2017-09-27T08:14:01.692Z,1026.6
2017-09-27T08:15:03.199Z,1026.6
2017-09-27T08:16:04.607Z,1026.5
2017-09-27T08:17:06.077Z,1026.5
2017-09-27T08:18:07.487Z,1026.6
2017-09-27T08:19:08.962Z,1026.6
2017-09-27T08:20:10.370Z,1026.6
2017-09-27T08:21:11.852Z,1026.7
2017-09-27T08:22:13.291Z,1026.7
2017-09-27T08:23:14.724Z,1026.8
2017-09-27T08:24:16.131Z,1026.8
2017-09-27T08:25:17.601Z,1026.7
2017-09-27T08:26:19.009Z,1026.7
2017-09-27T08:27:20.420Z,1026.7
2017-09-27T08:28:21.923Z,1026.8
2017-09-27T08:29:23.330Z,1026.9
2017-09-27T08:30:24.733Z,1027.0
2017-09-27T08:31:26.243Z,1026.8
2017-09-27T08:32:27.650Z,1026.9
2017-09-27T08:33:29.057Z,1027.0
2017-09-27T08:34:30.564Z,1027.3
2017-09-27T08:35:31.969Z,1027.5
2017-09-27T08:36:33.372Z,1027.7
2017-09-27T08:37:34.883Z,1027.9
2017-09-27T08:38:36.294Z,1028.0
2017-09-27T08:39:37.807Z,1028.1
2017-09-27T08:40:39.213Z,1028.3
2017-09-27T08:41:40.622Z,1028.5
2017-09-27T08:42:42.095Z,1028.7
2017-09-27T08:43:43.498Z,1029.0
2017-09-27T08:44:44.903Z,1029.2
2017-09-27T08:45:46.427Z,1029.4
2017-09-27T08:46:47.834Z,1029.6
2017-09-27T08:47:49.241Z,1029.9
2017-09-27T08:48:50.729Z,1030.2
2017-09-27T08:49:52.138Z,1030.7
2017-09-27T08:50:53.541Z,1031.3
2017-09-27T08:51:55.053Z,1031.9
2017-09-27T08:52:56.457Z,1032.5
2017-09-27T08:53:57.861Z,1033.2
2017-09-27T08:54:59.370Z,1034.0
2017-09-27T08:56:00.776Z,1034.8
2017-09-27T08:57:02.181Z,1035.9
2017-09-27T08:58:03.690Z,1037.1
2017-09-27T08:59:05.099Z,1038.3
2017-09-27T09:00:06.571Z,1039.3
2017-09-27T09:01:07.975Z,1040.5
2017-09-27T09:02:09.454Z,1041.6
2017-09-27T09:03:10.861Z,1042.8
2017-09-27T09:04:12.333Z,1044.3
2017-09-27T09:05:13.750Z,1045.6
2017-09-27T09:06:15.218Z,1046.8
2017-09-27T09:07:16.628Z,1048.3
2017-09-27T09:08:18.097Z,1049.5
2017-09-27T09:09:19.502Z,1050.8
2017-09-27T09:10:20.976Z,1051.7
2017-09-27T09:11:22.385Z,1052.7
2017-09-27T09:12:23.788Z,1053.5
2017-09-27T09:13:25.297Z,1054.2
2017-09-27T09:14:26.707Z,1053.0
2017-09-27T09:15:28.159Z,1051.0
2017-09-27T09:16:29.619Z,1050.2
2017-09-27T09:17:31.024Z,1050.7
2017-09-27T09:18:32.469Z,1050.7
2017-09-27T09:19:33.941Z,1050.9
2017-09-27T09:20:35.343Z,1051.8
2017-09-27T09:21:36.752Z,1050.4
2017-09-27T09:22:38.172Z,1048.7
2017-09-27T09:23:39.574Z,1047.7
2017-09-27T09:24:42.161Z,1046.9
2017-09-27T09:25:44.004Z,1047.5
2017-09-27T09:26:45.410Z,1046.6
2017-09-27T09:27:46.813Z,1045.4
2017-09-27T09:28:48.238Z,1045.9
2017-09-27T09:29:49.640Z,1045.1
2017-09-27T09:30:51.114Z,1044.5
2017-09-27T09:31:52.518Z,1043.3
2017-09-27T09:32:53.996Z,1041.9
2017-09-27T09:33:55.400Z,1041.0
2017-09-27T09:34:56.874Z,1040.2
2017-09-27T09:35:58.288Z,1039.5
2017-09-27T09:36:59.683Z,1038.5
2017-09-27T09:38:01.195Z,1037.9
2017-09-27T09:39:03.308Z,1038.1
2017-09-27T09:40:04.717Z,1037.5
2017-09-27T09:41:06.123Z,1036.8
2017-09-27T09:42:07.524Z,1036.6
2017-09-27T09:43:08.931Z,1036.2
2017-09-27T09:44:10.352Z,1035.7
2017-09-27T09:45:11.861Z,1035.4
2017-09-27T09:46:13.441Z,1035.3
2017-09-27T09:47:14.841Z,1037.3
2017-09-27T09:48:16.258Z,1039.4
2017-09-27T09:49:17.762Z,1042.4
2017-09-27T09:50:19.168Z,1044.8
2017-09-27T09:51:20.583Z,1047.0
2017-09-27T09:52:22.079Z,1047.8
2017-09-27T09:53:23.488Z,1049.8
2017-09-27T09:54:24.912Z,1051.5
2017-09-27T09:55:26.298Z,1052.9
2017-09-27T09:56:27.706Z,1054.3
2017-09-27T09:57:29.116Z,1056.1
2017-09-27T09:58:30.620Z,1057.4
2017-09-27T09:59:32.029Z,1058.8
2017-09-27T10:00:33.521Z,1060.5
2017-09-27T10:01:34.930Z,1061.9
2017-09-27T10:02:36.343Z,1063.4
2017-09-27T10:03:38.846Z,1064.7
2017-09-27T10:04:40.253Z,1066.1
2017-09-27T10:05:41.665Z,1067.2
2017-09-27T10:06:43.166Z,1068.4
2017-09-27T10:07:44.581Z,1069.3
2017-09-27T10:08:46.048Z,1069.8
2017-09-27T10:09:47.458Z,1070.6
2017-09-27T10:10:48.928Z,1071.5
2017-09-27T10:11:50.339Z,1072.1
2017-09-27T10:12:51.809Z,1072.7
2017-09-27T10:13:53.222Z,1073.3
2017-09-27T10:14:54.689Z,1073.8
2017-09-27T10:15:56.102Z,1074.5
2017-09-27T10:16:57.569Z,1075.0
2017-09-27T10:17:58.983Z,1075.5
2017-09-27T10:19:00.453Z,1076.2
2017-09-27T10:20:01.865Z,1076.6
2017-09-27T10:21:03.289Z,1077.1
2017-09-27T10:22:04.744Z,1077.2
2017-09-27T10:23:06.155Z,1077.5
2017-09-27T10:24:07.576Z,1077.7
2017-09-27T10:25:08.989Z,1078.2
2017-09-27T10:26:10.401Z,1078.5
2017-09-27T10:27:11.872Z,1078.9
2017-09-27T10:28:13.285Z,1079.0
2017-09-27T10:29:14.697Z,1079.3
2017-09-27T10:30:16.192Z,1079.6
2017-09-27T10:31:17.606Z,1080.0
2017-09-27T10:32:19.016Z,1080.0
2017-09-27T10:33:20.515Z,1080.3
2017-09-27T10:34:21.928Z,1080.5
2017-09-27T10:35:23.395Z,1080.8
2017-09-27T10:36:24.812Z,1080.7
2017-09-27T10:37:26.274Z,1080.5
2017-09-27T10:38:27.689Z,1080.3
2017-09-27T10:39:29.154Z,1080.4
2017-09-27T10:40:30.572Z,1080.4
2017-09-27T10:41:32.037Z,1080.3
2017-09-27T10:42:33.453Z,1080.1
2017-09-27T10:43:34.918Z,1080.0
2017-09-27T10:44:36.330Z,1079.8
2017-09-27T10:45:37.805Z,1079.7
2017-09-27T10:46:40.660Z,1079.3
2017-09-27T10:47:42.111Z,1079.3
2017-09-27T10:48:43.533Z,1079.3
2017-09-27T10:49:44.992Z,1079.1
2017-09-27T10:50:46.409Z,1079.0
2017-09-27T10:51:47.873Z,1078.9
2017-09-27T10:52:49.283Z,1078.9
2017-09-27T10:53:50.702Z,1079.0
2017-09-27T10:54:52.193Z,1078.9
2017-09-27T10:55:53.646Z,1078.9
2017-09-27T10:56:55.058Z,1078.9
2017-09-27T10:57:56.516Z,1078.7
2017-09-27T10:58:57.930Z,1078.6
2017-09-27T10:59:59.339Z,1078.4
2017-09-27T11:01:00.835Z,1078.1
2017-09-27T11:02:02.247Z,1077.9
2017-09-27T11:03:03.669Z,1077.6
2017-09-27T11:04:05.157Z,1077.4
2017-09-27T11:05:06.571Z,1077.4
2017-09-27T11:06:08.046Z,1077.1
2017-09-27T11:07:09.455Z,1076.9
2017-09-27T11:08:11.002Z,1077.0
2017-09-27T11:09:12.413Z,1076.9
2017-09-27T11:10:13.900Z,1076.5
2017-09-27T11:11:15.635Z,1075.7
2017-09-27T11:12:17.093Z,1075.3
2017-09-27T11:13:18.506Z,1075.2
2017-09-27T11:14:20.015Z,1075.0
2017-09-27T11:15:21.430Z,1074.6
2017-09-27T11:16:22.957Z,1068.9
2017-09-27T11:17:24.372Z,1064.2
2017-09-27T11:18:25.833Z,1060.1
2017-09-27T11:19:27.255Z,1056.0
2017-09-27T11:20:28.713Z,1052.5
2017-09-27T11:21:30.126Z,1049.0
2017-09-27T11:22:31.595Z,1045.8
2017-09-27T11:23:33.425Z,1042.9
2017-09-27T11:24:34.836Z,1040.2
2017-09-27T11:25:36.325Z,1038.0
2017-09-27T11:26:37.733Z,1035.3
2017-09-27T11:27:39.144Z,1032.9
2017-09-27T11:28:40.715Z,1030.8
2017-09-27T11:29:42.076Z,1028.8
2017-09-27T11:30:43.525Z,1026.7
2017-09-27T11:31:44.937Z,1024.7
2017-09-27T11:32:46.407Z,1022.9
2017-09-27T11:33:47.818Z,1021.3
2017-09-27T11:34:49.287Z,1019.6
2017-09-27T11:35:50.700Z,1018.0
2017-09-27T11:36:52.169Z,1016.6
2017-09-27T11:37:53.579Z,1015.0
2017-09-27T11:38:55.052Z,1013.8
2017-09-27T11:39:56.456Z,1012.6
2017-09-27T11:40:57.929Z,1011.5
2017-09-27T11:41:59.335Z,1010.5
2017-09-27T11:43:00.814Z,1009.8
2017-09-27T11:44:02.216Z,1009.5
2017-09-27T11:45:03.629Z,1009.2
2017-09-27T11:46:06.053Z,1008.5
2017-09-27T11:47:07.462Z,1007.9
2017-09-27T11:48:08.877Z,1007.7
2017-09-27T11:49:10.374Z,1007.3
2017-09-27T11:50:11.782Z,1006.7
2017-09-27T11:51:13.253Z,1006.4
2017-09-27T11:52:14.659Z,1006.3
2017-09-27T11:53:16.136Z,1006.3
2017-09-27T11:54:17.545Z,1006.5
2017-09-27T11:55:19.019Z,1006.5
2017-09-27T11:56:20.421Z,1006.6
2017-09-27T11:57:21.900Z,1006.5
2017-09-27T11:58:23.303Z,1006.4
2017-09-27T11:59:24.703Z,1006.4
2017-09-27T12:00:26.227Z,1006.3
2017-09-27T12:01:27.628Z,1006.2
2017-09-27T12:02:29.039Z,1006.0
2017-09-27T12:03:30.539Z,1005.8
2017-09-27T12:04:31.942Z,1005.8
2017-09-27T12:05:33.353Z,1005.7
2017-09-27T12:06:34.860Z,1005.8
2017-09-27T12:07:36.268Z,1005.7
2017-09-27T12:08:37.679Z,1005.4
2017-09-27T12:09:39.182Z,1005.3
2017-09-27T12:10:40.606Z,1004.9
2017-09-27T12:11:42.059Z,1004.6
2017-09-27T12:12:43.468Z,1004.1
2017-09-27T12:13:44.943Z,1003.6
2017-09-27T12:14:46.346Z,1003.2
2017-09-27T12:15:47.825Z,1002.6
2017-09-27T12:16:49.233Z,1002.2
2017-09-27T12:17:50.703Z,1001.8
2017-09-27T12:18:52.109Z,1001.3
2017-09-27T12:19:53.521Z,1001.0
2017-09-27T12:20:55.030Z,1000.9
2017-09-27T12:21:56.433Z,1000.7
2017-09-27T12:22:57.840Z,1000.6
2017-09-27T12:23:59.345Z,1000.4
2017-09-27T12:25:00.762Z,1000.5
2017-09-27T12:26:02.160Z,1000.8
2017-09-27T12:27:03.667Z,1000.4
2017-09-27T12:28:05.076Z,1000.4
2017-09-27T12:29:06.479Z,1000.0
2017-09-27T12:30:08.001Z,999.6
2017-09-27T12:31:09.410Z,999.3
2017-09-27T12:32:10.812Z,999.0
2017-09-27T12:33:12.311Z,998.7
2017-09-27T12:34:13.716Z,998.5
2017-09-27T12:35:15.164Z,998.7
2017-09-27T12:36:16.633Z,998.9
2017-09-27T12:37:18.090Z,999.2
2017-09-27T12:38:19.514Z,999.6
2017-09-27T12:39:20.921Z,999.7
2017-09-27T12:40:22.323Z,999.9
2017-09-27T12:41:23.832Z,1000.1
2017-09-27T12:42:25.241Z,1000.2
2017-09-27T12:43:26.674Z,1000.5
2017-09-27T12:44:28.083Z,1000.6
2017-09-27T12:45:29.491Z,1000.8
2017-09-27T12:46:30.895Z,1001.0